Thisted, Denmark
Current Conditions -  °F | °C
As of 1:50 AM on Thursday 18 Dec 2014 (Local Time) from EKYT Reporting Station
Haze Haze  
Wind Chill: 34°   Ceiling: 5800
Heat Index: 41°   Visibility: 2.5mi
Dew Point: 39°   Wind: 13mph
Humidity: 93%   Direction: 220°SW
Pressure: 29.47"   Gusts: NA
Location:  56.95°N, 8.69°E
Report Text: EKYT 180050Z 22011KT 4000 BR FEW007 BKN058 05/04 Q0998
Loading
Personal Weather Stations






























Interactive Weather Map New forecast layout! Learn more

10-Day Weather Forecast

Advertisements
Track Severe Weather on mobile